PWSweather.com
Personal Weather Stations
Station Observations
SHADEVILLE
Shadeville, Crawfordville, FL 32327

ShadevilleCrawfordville, FL 32327

Lat: 30.1915, Lon: -84.310833

Elevation: 38

Station Type: La Crosse

High Low Average
Temperature 72.8°F22.7°C 59.3°F15.2°C 64.2°F17.9°C
Dew Point 63.9°F17.7°C 57.7°F14.3°C 60.6°F15.9°C
Winds 4.7 mph 7.6 kmh Calm Calm Calm SECalm SE
Wind Gusts 7.4 mph11.9 kmh -- --
Humidity 96% 72% 89%
Pressure 30.28 in1025.4 mb 30.17 in1021.7 mb -
Precipitation 0.04 in1.0 mm - -
Hour Temp Dew Point Humidity Winds Wind Gusts Pressure Precip Precip Rate Daily Precip Total
12:00 AM 60.6°F15.9°C 58.4°F14.7°C 93% Calm Calm -- 30.25 in1024.4 mb 0.00 in0.0 mm 0.00 in/hr0.0 mm/hr 0.00 in0.0 mm
12:07 AM 60.6°F15.9°C 58.4°F14.7°C 93% Calm Calm -- 30.24 in1024.0 mb 0.00 in0.0 mm 0.00 in/hr0.0 mm/hr 0.00 in0.0 mm
12:11 AM 60.4°F15.8°C 58.2°F14.6°C 93% Calm Calm -- 30.25 in1024.4 mb 0.02 in0.5 mm 0.30 in/hr7.6 mm/hr 0.02 in0.5 mm
12:15 AM 60.4°F15.8°C 58.2°F14.6°C 93% Calm Calm -- 30.25 in1024.4 mb 0.02 in0.5 mm 0.00 in/hr0.0 mm/hr 0.02 in0.5 mm
12:22 AM 60.4°F15.8°C 58.2°F14.6°C 93% Calm Calm -- 30.26 in1024.7 mb 0.02 in0.5 mm 0.00 in/hr0.0 mm/hr 0.02 in0.5 mm
12:26 AM 60.4°F15.8°C 58.2°F14.6°C 93% Calm Calm -- 30.25 in1024.4 mb 0.02 in0.5 mm 0.00 in/hr0.0 mm/hr 0.02 in0.5 mm
12:30 AM 60.4°F15.8°C 58.2°F14.6°C 93% Calm Calm -- 30.25 in1024.4 mb 0.02 in0.5 mm 0.00 in/hr0.0 mm/hr 0.02 in0.5 mm
12:37 AM 60.4°F15.8°C 58.2°F14.6°C 93% Calm Calm -- 30.25 in1024.4 mb 0.02 in0.5 mm 0.00 in/hr0.0 mm/hr 0.02 in0.5 mm
12:41 AM 60.4°F15.8°C 58.2°F14.6°C 93% Calm Calm -- 30.25 in1024.4 mb 0.02 in0.5 mm 0.00 in/hr0.0 mm/hr 0.02 in0.5 mm
12:46 AM 60.2°F15.7°C 58.0°F14.4°C 93% Calm Calm -- 30.25 in1024.4 mb 0.02 in0.5 mm 0.00 in/hr0.0 mm/hr 0.02 in0.5 mm
12:52 AM 60.2°F15.7°C 58.0°F14.4°C 93% Calm Calm -- 30.25 in1024.4 mb 0.02 in0.5 mm 0.00 in/hr0.0 mm/hr 0.02 in0.5 mm
12:56 AM 60.2°F15.7°C 58.0°F14.4°C 93% Calm Calm -- 30.25 in1024.4 mb 0.02 in0.5 mm 0.00 in/hr0.0 mm/hr 0.02 in0.5 mm
01:01 AM 60.4°F15.8°C 58.2°F14.6°C 93% Calm Calm -- 30.25 in1024.4 mb 0.02 in0.5 mm 0.00 in/hr0.0 mm/hr 0.02 in0.5 mm
01:05 AM 60.2°F15.7°C 58.0°F14.4°C 93% Calm Calm -- 30.24 in1024.0 mb 0.02 in0.5 mm 0.00 in/hr0.0 mm/hr 0.02 in0.5 mm
01:22 AM 60.2°F15.7°C 58.0°F14.4°C 93% Calm Calm -- 30.24 in1024.0 mb 0.00 in0.0 mm 0.00 in/hr0.0 mm/hr 0.02 in0.5 mm
01:29 AM 60.2°F15.7°C 58.0°F14.4°C 93% Calm Calm -- 30.25 in1024.4 mb 0.00 in0.0 mm 0.00 in/hr0.0 mm/hr 0.02 in0.5 mm
01:33 AM 60.2°F15.7°C 58.0°F14.4°C 93% Calm Calm -- 30.24 in1024.0 mb 0.00 in0.0 mm 0.00 in/hr0.0 mm/hr 0.02 in0.5 mm
01:37 AM 60.2°F15.7°C 58.0°F14.4°C 93% Calm Calm -- 30.24 in1024.0 mb 0.00 in0.0 mm 0.00 in/hr0.0 mm/hr 0.02 in0.5 mm
01:44 AM 60.2°F15.7°C 58.0°F14.4°C 93% Calm Calm -- 30.24 in1024.0 mb 0.00 in0.0 mm 0.00 in/hr0.0 mm/hr 0.02 in0.5 mm
01:48 AM 60.2°F15.7°C 58.0°F14.4°C 93% Calm Calm -- 30.24 in1024.0 mb 0.00 in0.0 mm 0.00 in/hr0.0 mm/hr 0.02 in0.5 mm
01:52 AM 60.2°F15.7°C 58.3°F14.6°C 94% Calm Calm -- 30.24 in1024.0 mb 0.00 in0.0 mm 0.00 in/hr0.0 mm/hr 0.02 in0.5 mm
01:59 AM 60.2°F15.7°C 58.3°F14.6°C 94% Calm Calm -- 30.23 in1023.7 mb 0.00 in0.0 mm 0.00 in/hr0.0 mm/hr 0.02 in0.5 mm
02:03 AM 60.2°F15.7°C 58.3°F14.6°C 94% Calm Calm -- 30.23 in1023.7 mb 0.00 in0.0 mm 0.00 in/hr0.0 mm/hr 0.02 in0.5 mm
02:06 AM 60.2°F15.7°C 58.3°F14.6°C 94% Calm Calm -- 30.23 in1023.7 mb 0.00 in0.0 mm 0.00 in/hr0.0 mm/hr 0.02 in0.5 mm
02:22 AM 60.4°F15.8°C 58.5°F14.7°C 94% Calm Calm -- 30.23 in1023.7 mb 0.00 in0.0 mm 0.00 in/hr0.0 mm/hr 0.02 in0.5 mm
02:28 AM 60.4°F15.8°C 58.5°F14.7°C 94% Calm Calm -- 30.21 in1023.0 mb 0.00 in0.0 mm 0.00 in/hr0.0 mm/hr 0.02 in0.5 mm
02:32 AM 60.4°F15.8°C 58.5°F14.7°C 94% Calm Calm -- 30.21 in1023.0 mb 0.00 in0.0 mm 0.00 in/hr0.0 mm/hr 0.02 in0.5 mm
02:39 AM 60.4°F15.8°C 58.5°F14.7°C 94% Calm Calm -- 30.20 in1022.7 mb 0.04 in1.0 mm 0.34 in/hr8.6 mm/hr 0.04 in1.0 mm
02:43 AM 60.4°F15.8°C 58.5°F14.7°C 94% Calm Calm -- 30.20 in1022.7 mb 0.04 in1.0 mm 0.00 in/hr0.0 mm/hr 0.04 in1.0 mm
02:47 AM 60.4°F15.8°C 58.5°F14.7°C 94% Calm Calm -- 30.19 in1022.4 mb 0.04 in1.0 mm 0.00 in/hr0.0 mm/hr 0.04 in1.0 mm
02:54 AM 60.4°F15.8°C 58.5°F14.7°C 94% Calm Calm -- 30.19 in1022.4 mb 0.04 in1.0 mm 0.00 in/hr0.0 mm/hr 0.04 in1.0 mm
02:58 AM 60.6°F15.9°C 59.0°F15.0°C 95% Calm Calm -- 30.18 in1022.0 mb 0.04 in1.0 mm 0.00 in/hr0.0 mm/hr 0.04 in1.0 mm
03:03 AM 60.6°F15.9°C 59.0°F15.0°C 95% Calm Calm -- 30.17 in1021.7 mb 0.04 in1.0 mm 0.00 in/hr0.0 mm/hr 0.04 in1.0 mm
03:07 AM 60.6°F15.9°C 59.0°F15.0°C 95% Calm Calm -- 30.17 in1021.7 mb 0.04 in1.0 mm 0.00 in/hr0.0 mm/hr 0.04 in1.0 mm
03:22 AM 61.1°F16.2°C 59.5°F15.3°C 95% Calm Calm -- 30.20 in1022.7 mb 0.04 in1.0 mm 0.00 in/hr0.0 mm/hr 0.04 in1.0 mm
03:29 AM 61.1°F16.2°C 59.5°F15.3°C 95% Calm Calm -- 30.20 in1022.7 mb 0.04 in1.0 mm 0.00 in/hr0.0 mm/hr 0.04 in1.0 mm
03:33 AM 61.1°F16.2°C 59.5°F15.3°C 95% Calm Calm -- 30.20 in1022.7 mb 0.00 in0.0 mm 0.00 in/hr0.0 mm/hr 0.04 in1.0 mm
03:37 AM 61.1°F16.2°C 59.5°F15.3°C 95% Calm Calm -- 30.20 in1022.7 mb 0.00 in0.0 mm 0.00 in/hr0.0 mm/hr 0.04 in1.0 mm
03:44 AM 60.9°F16.1°C 59.3°F15.2°C 95% Calm Calm -- 30.21 in1023.0 mb 0.00 in0.0 mm 0.00 in/hr0.0 mm/hr 0.04 in1.0 mm
03:48 AM 60.9°F16.1°C 59.3°F15.2°C 95% Calm Calm -- 30.21 in1023.0 mb 0.00 in0.0 mm 0.00 in/hr0.0 mm/hr 0.04 in1.0 mm
03:52 AM 60.9°F16.1°C 59.3°F15.2°C 95% Calm Calm -- 30.21 in1023.0 mb 0.00 in0.0 mm 0.00 in/hr0.0 mm/hr 0.04 in1.0 mm
03:59 AM 60.9°F16.1°C 59.3°F15.2°C 95% Calm Calm -- 30.21 in1023.0 mb 0.00 in0.0 mm 0.00 in/hr0.0 mm/hr 0.04 in1.0 mm
04:03 AM 60.8°F16.0°C 59.2°F15.1°C 95% Calm Calm -- 30.21 in1023.0 mb 0.00 in0.0 mm 0.00 in/hr0.0 mm/hr 0.04 in1.0 mm
04:06 AM 60.6°F15.9°C 59.0°F15.0°C 95% Calm Calm -- 30.22 in1023.4 mb 0.00 in0.0 mm 0.00 in/hr0.0 mm/hr 0.04 in1.0 mm
04:21 AM 60.6°F15.9°C 59.0°F15.0°C 95% Calm Calm -- 30.21 in1023.0 mb 0.00 in0.0 mm 0.00 in/hr0.0 mm/hr 0.04 in1.0 mm
04:28 AM 60.6°F15.9°C 59.0°F15.0°C 95% Calm Calm -- 30.21 in1023.0 mb 0.00 in0.0 mm 0.00 in/hr0.0 mm/hr 0.04 in1.0 mm
04:32 AM 60.6°F15.9°C 59.0°F15.0°C 95% Calm Calm -- 30.20 in1022.7 mb 0.00 in0.0 mm 0.00 in/hr0.0 mm/hr 0.04 in1.0 mm
04:36 AM 60.6°F15.9°C 59.0°F15.0°C 95% Calm Calm -- 30.21 in1023.0 mb 0.00 in0.0 mm 0.00 in/hr0.0 mm/hr 0.04 in1.0 mm
04:43 AM 60.4°F15.8°C 58.8°F14.9°C 95% Calm Calm -- 30.21 in1023.0 mb 0.00 in0.0 mm 0.00 in/hr0.0 mm/hr 0.04 in1.0 mm
04:47 AM 60.2°F15.7°C 58.6°F14.8°C 95% Calm Calm -- 30.21 in1023.0 mb 0.00 in0.0 mm 0.00 in/hr0.0 mm/hr 0.04 in1.0 mm
04:52 AM 60.2°F15.7°C 58.6°F14.8°C 95% Calm Calm -- 30.20 in1022.7 mb 0.00 in0.0 mm 0.00 in/hr0.0 mm/hr 0.04 in1.0 mm
04:58 AM 60.2°F15.7°C 58.6°F14.8°C 95% Calm Calm -- 30.20 in1022.7 mb 0.00 in0.0 mm 0.00 in/hr0.0 mm/hr 0.04 in1.0 mm
05:02 AM 60.0°F15.6°C 58.4°F14.7°C 95% Calm Calm -- 30.20 in1022.7 mb 0.00 in0.0 mm 0.00 in/hr0.0 mm/hr 0.04 in1.0 mm
05:07 AM 60.0°F15.6°C 58.4°F14.7°C 95% Calm Calm -- 30.21 in1023.0 mb 0.00 in0.0 mm 0.00 in/hr0.0 mm/hr 0.04 in1.0 mm
05:22 AM 59.9°F15.5°C 58.3°F14.6°C 95% Calm Calm -- 30.20 in1022.7 mb 0.00 in0.0 mm 0.00 in/hr0.0 mm/hr 0.04 in1.0 mm
05:29 AM 59.5°F15.3°C 57.9°F14.4°C 95% Calm Calm -- 30.20 in1022.7 mb 0.00 in0.0 mm 0.00 in/hr0.0 mm/hr 0.04 in1.0 mm
05:33 AM 59.5°F15.3°C 57.9°F14.4°C 95% Calm Calm -- 30.20 in1022.7 mb 0.00 in0.0 mm 0.00 in/hr0.0 mm/hr 0.04 in1.0 mm
05:37 AM 59.3°F15.2°C 57.7°F14.3°C 95% Calm Calm -- 30.20 in1022.7 mb 0.00 in0.0 mm 0.00 in/hr0.0 mm/hr 0.04 in1.0 mm
05:44 AM 59.3°F15.2°C 57.7°F14.3°C 95% Calm Calm -- 30.21 in1023.0 mb 0.00 in0.0 mm 0.00 in/hr0.0 mm/hr 0.04 in1.0 mm
05:48 AM 59.3°F15.2°C 57.7°F14.3°C 95% Calm Calm -- 30.20 in1022.7 mb 0.00 in0.0 mm 0.00 in/hr0.0 mm/hr 0.04 in1.0 mm
05:52 AM 59.3°F15.2°C 57.7°F14.3°C 95% Calm Calm -- 30.20 in1022.7 mb 0.00 in0.0 mm 0.00 in/hr0.0 mm/hr 0.04 in1.0 mm
05:59 AM 59.3°F15.2°C 57.7°F14.3°C 95% Calm Calm -- 30.21 in1023.0 mb 0.00 in0.0 mm 0.00 in/hr0.0 mm/hr 0.04 in1.0 mm
06:03 AM 59.3°F15.2°C 57.7°F14.3°C 95% Calm Calm -- 30.21 in1023.0 mb 0.00 in0.0 mm 0.00 in/hr0.0 mm/hr 0.04 in1.0 mm
06:06 AM 59.3°F15.2°C 57.7°F14.3°C 95% Calm Calm -- 30.21 in1023.0 mb 0.00 in0.0 mm 0.00 in/hr0.0 mm/hr 0.04 in1.0 mm
06:21 AM 59.3°F15.2°C 57.7°F14.3°C 95% Calm Calm -- 30.21 in1023.0 mb 0.00 in0.0 mm 0.00 in/hr0.0 mm/hr 0.04 in1.0 mm
06:28 AM 59.3°F15.2°C 57.7°F14.3°C 95% Calm Calm -- 30.21 in1023.0 mb 0.00 in0.0 mm 0.00 in/hr0.0 mm/hr 0.04 in1.0 mm
06:32 AM 59.3°F15.2°C 57.7°F14.3°C 95% Calm Calm -- 30.21 in1023.0 mb 0.00 in0.0 mm 0.00 in/hr0.0 mm/hr 0.04 in1.0 mm
06:36 AM 59.3°F15.2°C 57.7°F14.3°C 95% Calm Calm -- 30.21 in1023.0 mb 0.00 in0.0 mm 0.00 in/hr0.0 mm/hr 0.04 in1.0 mm
06:43 AM 59.3°F15.2°C 57.7°F14.3°C 95% Calm Calm -- 30.21 in1023.0 mb 0.00 in0.0 mm 0.00 in/hr0.0 mm/hr 0.04 in1.0 mm
06:47 AM 59.3°F15.2°C 57.7°F14.3°C 95% Calm Calm -- 30.21 in1023.0 mb 0.00 in0.0 mm 0.00 in/hr0.0 mm/hr 0.04 in1.0 mm
06:51 AM 59.3°F15.2°C 57.7°F14.3°C 95% Calm Calm -- 30.20 in1022.7 mb 0.00 in0.0 mm 0.00 in/hr0.0 mm/hr 0.04 in1.0 mm
06:58 AM 59.3°F15.2°C 57.7°F14.3°C 95% Calm Calm -- 30.21 in1023.0 mb 0.00 in0.0 mm 0.00 in/hr0.0 mm/hr 0.04 in1.0 mm
07:02 AM 59.3°F15.2°C 57.7°F14.3°C 95% Calm Calm -- 30.21 in1023.0 mb 0.00 in0.0 mm 0.00 in/hr0.0 mm/hr 0.04 in1.0 mm
07:07 AM 59.3°F15.2°C 57.7°F14.3°C 95% Calm Calm -- 30.21 in1023.0 mb 0.00 in0.0 mm 0.00 in/hr0.0 mm/hr 0.04 in1.0 mm
07:20 AM 59.3°F15.2°C 57.7°F14.3°C 95% Calm Calm -- 30.21 in1023.0 mb 0.00 in0.0 mm 0.00 in/hr0.0 mm/hr 0.04 in1.0 mm
07:24 AM 59.3°F15.2°C 57.7°F14.3°C 95% Calm Calm -- 30.22 in1023.4 mb 0.00 in0.0 mm 0.00 in/hr0.0 mm/hr 0.04 in1.0 mm
07:28 AM 59.3°F15.2°C 57.7°F14.3°C 95% Calm Calm -- 30.22 in1023.4 mb 0.00 in0.0 mm 0.00 in/hr0.0 mm/hr 0.04 in1.0 mm
07:33 AM 59.3°F15.2°C 57.7°F14.3°C 95% Calm Calm -- 30.22 in1023.4 mb 0.00 in0.0 mm 0.00 in/hr0.0 mm/hr 0.04 in1.0 mm
07:39 AM 59.3°F15.2°C 57.7°F14.3°C 95% Calm Calm -- 30.22 in1023.4 mb 0.00 in0.0 mm 0.00 in/hr0.0 mm/hr 0.04 in1.0 mm
07:44 AM 59.3°F15.2°C 57.7°F14.3°C 95% Calm Calm -- 30.22 in1023.4 mb 0.00 in0.0 mm 0.00 in/hr0.0 mm/hr 0.04 in1.0 mm
07:48 AM 59.3°F15.2°C 57.7°F14.3°C 95% Calm Calm -- 30.22 in1023.4 mb 0.00 in0.0 mm 0.00 in/hr0.0 mm/hr 0.04 in1.0 mm
07:54 AM 59.5°F15.3°C 57.9°F14.4°C 95% Calm Calm -- 30.23 in1023.7 mb 0.00 in0.0 mm 0.00 in/hr0.0 mm/hr 0.04 in1.0 mm
07:59 AM 59.5°F15.3°C 57.9°F14.4°C 95% Calm Calm -- 30.23 in1023.7 mb 0.00 in0.0 mm 0.00 in/hr0.0 mm/hr 0.04 in1.0 mm
08:03 AM 59.5°F15.3°C 57.9°F14.4°C 95% Calm Calm -- 30.23 in1023.7 mb 0.00 in0.0 mm 0.00 in/hr0.0 mm/hr 0.04 in1.0 mm
08:08 AM 59.7°F15.4°C 58.1°F14.5°C 95% Calm Calm -- 30.23 in1023.7 mb 0.00 in0.0 mm 0.00 in/hr0.0 mm/hr 0.04 in1.0 mm
08:12 AM 59.7°F15.4°C 58.1°F14.5°C 95% Calm Calm -- 30.23 in1023.7 mb 0.00 in0.0 mm 0.00 in/hr0.0 mm/hr 0.04 in1.0 mm
08:17 AM 59.7°F15.4°C 58.1°F14.5°C 95% Calm Calm -- 30.23 in1023.7 mb 0.00 in0.0 mm 0.00 in/hr0.0 mm/hr 0.04 in1.0 mm
08:23 AM 59.7°F15.4°C 58.1°F14.5°C 95% Calm Calm -- 30.24 in1024.0 mb 0.00 in0.0 mm 0.00 in/hr0.0 mm/hr 0.04 in1.0 mm
08:28 AM 59.7°F15.4°C 58.1°F14.5°C 95% Calm Calm -- 30.24 in1024.0 mb 0.00 in0.0 mm 0.00 in/hr0.0 mm/hr 0.04 in1.0 mm
08:32 AM 59.9°F15.5°C 58.3°F14.6°C 95% Calm Calm -- 30.24 in1024.0 mb 0.00 in0.0 mm 0.00 in/hr0.0 mm/hr 0.04 in1.0 mm
08:38 AM 59.9°F15.5°C 58.3°F14.6°C 95% Calm Calm -- 30.24 in1024.0 mb 0.00 in0.0 mm 0.00 in/hr0.0 mm/hr 0.04 in1.0 mm
08:43 AM 59.9°F15.5°C 58.3°F14.6°C 95% Calm Calm -- 30.24 in1024.0 mb 0.00 in0.0 mm 0.00 in/hr0.0 mm/hr 0.04 in1.0 mm
08:47 AM 59.9°F15.5°C 58.3°F14.6°C 95% Calm Calm -- 30.24 in1024.0 mb 0.00 in0.0 mm 0.00 in/hr0.0 mm/hr 0.04 in1.0 mm
08:54 AM 59.9°F15.5°C 58.3°F14.6°C 95% Calm Calm -- 30.24 in1024.0 mb 0.00 in0.0 mm 0.00 in/hr0.0 mm/hr 0.04 in1.0 mm
08:58 AM 60.0°F15.6°C 58.4°F14.7°C 95% Calm Calm -- 30.24 in1024.0 mb 0.00 in0.0 mm 0.00 in/hr0.0 mm/hr 0.04 in1.0 mm
09:02 AM 60.0°F15.6°C 58.4°F14.7°C 95% Calm Calm -- 30.25 in1024.4 mb 0.00 in0.0 mm 0.00 in/hr0.0 mm/hr 0.04 in1.0 mm
09:09 AM 60.2°F15.7°C 58.6°F14.8°C 95% Calm Calm -- 30.25 in1024.4 mb 0.00 in0.0 mm 0.00 in/hr0.0 mm/hr 0.04 in1.0 mm
09:13 AM 60.2°F15.7°C 58.6°F14.8°C 95% Calm Calm -- 30.25 in1024.4 mb 0.00 in0.0 mm 0.00 in/hr0.0 mm/hr 0.04 in1.0 mm
09:17 AM 60.4°F15.8°C 58.8°F14.9°C 95% Calm Calm -- 30.25 in1024.4 mb 0.00 in0.0 mm 0.00 in/hr0.0 mm/hr 0.04 in1.0 mm
09:24 AM 60.4°F15.8°C 59.1°F15.1°C 96% Calm Calm -- 30.26 in1024.7 mb 0.00 in0.0 mm 0.00 in/hr0.0 mm/hr 0.04 in1.0 mm
09:28 AM 60.6°F15.9°C 59.3°F15.2°C 96% Calm Calm -- 30.26 in1024.7 mb 0.00 in0.0 mm 0.00 in/hr0.0 mm/hr 0.04 in1.0 mm
09:33 AM 60.6°F15.9°C 59.3°F15.2°C 96% Calm Calm -- 30.26 in1024.7 mb 0.00 in0.0 mm 0.00 in/hr0.0 mm/hr 0.04 in1.0 mm
09:37 AM 60.9°F16.1°C 59.6°F15.3°C 96% Calm Calm -- 30.26 in1024.7 mb 0.00 in0.0 mm 0.00 in/hr0.0 mm/hr 0.04 in1.0 mm
09:44 AM 60.9°F16.1°C 59.6°F15.3°C 96% Calm Calm -- 30.26 in1024.7 mb 0.00 in0.0 mm 0.00 in/hr0.0 mm/hr 0.04 in1.0 mm
09:48 AM 60.9°F16.1°C 59.6°F15.3°C 96% Calm Calm -- 30.26 in1024.7 mb 0.00 in0.0 mm 0.00 in/hr0.0 mm/hr 0.04 in1.0 mm
09:52 AM 60.9°F16.1°C 59.6°F15.3°C 96% Calm Calm -- 30.26 in1024.7 mb 0.00 in0.0 mm 0.00 in/hr0.0 mm/hr 0.04 in1.0 mm
09:59 AM 61.1°F16.2°C 59.8°F15.4°C 96% Calm Calm -- 30.26 in1024.7 mb 0.00 in0.0 mm 0.00 in/hr0.0 mm/hr 0.04 in1.0 mm
10:02 AM 61.1°F16.2°C 59.8°F15.4°C 96% Calm Calm -- 30.26 in1024.7 mb 0.00 in0.0 mm 0.00 in/hr0.0 mm/hr 0.04 in1.0 mm
10:06 AM 61.1°F16.2°C 59.8°F15.4°C 96% Calm Calm -- 30.26 in1024.7 mb 0.00 in0.0 mm 0.00 in/hr0.0 mm/hr 0.04 in1.0 mm
10:13 AM 61.5°F16.4°C 60.2°F15.7°C 96% Calm Calm -- 30.27 in1025.1 mb 0.00 in0.0 mm 0.00 in/hr0.0 mm/hr 0.04 in1.0 mm
10:17 AM 61.5°F16.4°C 60.2°F15.7°C 96% Calm Calm -- 30.26 in1024.7 mb 0.00 in0.0 mm 0.00 in/hr0.0 mm/hr 0.04 in1.0 mm
10:21 AM 61.7°F16.5°C 60.4°F15.8°C 96% Calm Calm -- 30.27 in1025.1 mb 0.00 in0.0 mm 0.00 in/hr0.0 mm/hr 0.04 in1.0 mm
10:28 AM 61.7°F16.5°C 60.4°F15.8°C 96% Calm Calm -- 30.26 in1024.7 mb 0.00 in0.0 mm 0.00 in/hr0.0 mm/hr 0.04 in1.0 mm
10:32 AM 61.8°F16.6°C 60.5°F15.8°C 96% Calm Calm -- 30.27 in1025.1 mb 0.00 in0.0 mm 0.00 in/hr0.0 mm/hr 0.04 in1.0 mm
10:36 AM 61.9°F16.6°C 60.6°F15.9°C 96% Calm Calm -- 30.27 in1025.1 mb 0.00 in0.0 mm 0.00 in/hr0.0 mm/hr 0.04 in1.0 mm
10:43 AM 62.2°F16.8°C 60.8°F16.0°C 96% Calm Calm -- 30.27 in1025.1 mb 0.00 in0.0 mm 0.00 in/hr0.0 mm/hr 0.04 in1.0 mm
10:47 AM 62.1°F16.7°C 60.8°F16.0°C 96% Calm Calm -- 30.27 in1025.1 mb 0.00 in0.0 mm 0.00 in/hr0.0 mm/hr 0.04 in1.0 mm
10:51 AM 62.3°F16.8°C 61.0°F16.1°C 96% Calm Calm -- 30.27 in1025.1 mb 0.00 in0.0 mm 0.00 in/hr0.0 mm/hr 0.04 in1.0 mm
10:58 AM 62.8°F17.1°C 61.4°F16.3°C 96% Calm Calm -- 30.27 in1025.1 mb 0.00 in0.0 mm 0.00 in/hr0.0 mm/hr 0.04 in1.0 mm
11:02 AM 63.0°F17.2°C 61.7°F16.5°C 96% Calm Calm -- 30.27 in1025.1 mb 0.00 in0.0 mm 0.00 in/hr0.0 mm/hr 0.04 in1.0 mm
11:06 AM 62.9°F17.2°C 61.6°F16.4°C 96% Calm Calm -- 30.27 in1025.1 mb 0.00 in0.0 mm 0.00 in/hr0.0 mm/hr 0.04 in1.0 mm
11:13 AM 62.8°F17.1°C 61.5°F16.4°C 96% Calm Calm -- 30.27 in1025.1 mb 0.00 in0.0 mm 0.00 in/hr0.0 mm/hr 0.04 in1.0 mm
11:17 AM 62.7°F17.1°C 61.4°F16.3°C 96% Calm Calm -- 30.28 in1025.4 mb 0.00 in0.0 mm 0.00 in/hr0.0 mm/hr 0.04 in1.0 mm
11:22 AM 62.8°F17.1°C 61.5°F16.4°C 96% Calm Calm -- 30.27 in1025.1 mb 0.00 in0.0 mm 0.00 in/hr0.0 mm/hr 0.04 in1.0 mm
11:28 AM 62.9°F17.2°C 61.3°F16.3°C 95% Calm Calm -- 30.27 in1025.1 mb 0.00 in0.0 mm 0.00 in/hr0.0 mm/hr 0.04 in1.0 mm
11:32 AM 62.8°F17.1°C 61.2°F16.2°C 95% Calm Calm -- 30.27 in1025.1 mb 0.00 in0.0 mm 0.00 in/hr0.0 mm/hr 0.04 in1.0 mm
11:37 AM 63.0°F17.2°C 61.3°F16.3°C 95% Calm Calm -- 30.27 in1025.1 mb 0.00 in0.0 mm 0.00 in/hr0.0 mm/hr 0.04 in1.0 mm
11:43 AM 63.5°F17.5°C 62.2°F16.8°C 96% Calm Calm -- 30.27 in1025.1 mb 0.00 in0.0 mm 0.00 in/hr0.0 mm/hr 0.04 in1.0 mm
11:47 AM 63.9°F17.7°C 62.2°F16.8°C 95% Calm Calm -- 30.27 in1025.1 mb 0.00 in0.0 mm 0.00 in/hr0.0 mm/hr 0.04 in1.0 mm
11:52 AM 63.9°F17.7°C 62.2°F16.8°C 95% Calm Calm -- 30.27 in1025.1 mb 0.00 in0.0 mm 0.00 in/hr0.0 mm/hr 0.04 in1.0 mm
11:58 AM 64.4°F18.0°C 62.7°F17.1°C 95% Calm Calm -- 30.27 in1025.1 mb 0.00 in0.0 mm 0.00 in/hr0.0 mm/hr 0.04 in1.0 mm
12:03 PM 64.6°F18.1°C 62.7°F17.1°C 94% Calm Calm -- 30.27 in1025.1 mb 0.00 in0.0 mm 0.00 in/hr0.0 mm/hr 0.04 in1.0 mm
12:07 PM 64.5°F18.1°C 62.6°F17.0°C 94% Calm Calm -- 30.27 in1025.1 mb 0.00 in0.0 mm 0.00 in/hr0.0 mm/hr 0.04 in1.0 mm
12:11 PM 65.3°F18.5°C 63.3°F17.4°C 94% Calm Calm -- 30.27 in1025.1 mb 0.00 in0.0 mm 0.00 in/hr0.0 mm/hr 0.04 in1.0 mm
12:18 PM 65.3°F18.5°C 62.7°F17.1°C 92% Calm Calm -- 30.27 in1025.1 mb 0.00 in0.0 mm 0.00 in/hr0.0 mm/hr 0.04 in1.0 mm
12:22 PM 65.4°F18.6°C 62.8°F17.1°C 92% Calm Calm -- 30.27 in1025.1 mb 0.00 in0.0 mm 0.00 in/hr0.0 mm/hr 0.04 in1.0 mm
12:26 PM 65.4°F18.6°C 62.8°F17.1°C 92% Calm Calm -- 30.27 in1025.1 mb 0.00 in0.0 mm 0.00 in/hr0.0 mm/hr 0.04 in1.0 mm
12:33 PM 65.3°F18.5°C 62.7°F17.1°C 92% Calm Calm -- 30.27 in1025.1 mb 0.00 in0.0 mm 0.00 in/hr0.0 mm/hr 0.04 in1.0 mm
12:37 PM 65.0°F18.3°C 62.1°F16.7°C 90% Calm Calm -- 30.27 in1025.1 mb 0.00 in0.0 mm 0.00 in/hr0.0 mm/hr 0.04 in1.0 mm
12:41 PM 64.9°F18.3°C 62.1°F16.7°C 90% Calm Calm -- 30.27 in1025.1 mb 0.00 in0.0 mm 0.00 in/hr0.0 mm/hr 0.04 in1.0 mm
12:48 PM 64.9°F18.3°C 62.0°F16.7°C 90% Calm Calm -- 30.26 in1024.7 mb 0.00 in0.0 mm 0.00 in/hr0.0 mm/hr 0.04 in1.0 mm
12:52 PM 64.7°F18.2°C 61.5°F16.4°C 89% Calm Calm -- 30.26 in1024.7 mb 0.00 in0.0 mm 0.00 in/hr0.0 mm/hr 0.04 in1.0 mm
12:56 PM 64.5°F18.1°C 61.3°F16.3°C 89% Calm Calm -- 30.26 in1024.7 mb 0.00 in0.0 mm 0.00 in/hr0.0 mm/hr 0.04 in1.0 mm
01:02 PM 64.4°F18.0°C 61.5°F16.4°C 90% Calm Calm -- 30.26 in1024.7 mb 0.00 in0.0 mm 0.00 in/hr0.0 mm/hr 0.04 in1.0 mm
01:06 PM 64.6°F18.1°C 61.4°F16.3°C 89% Calm Calm -- 30.26 in1024.7 mb 0.00 in0.0 mm 0.00 in/hr0.0 mm/hr 0.04 in1.0 mm
01:10 PM 64.6°F18.1°C 61.4°F16.3°C 89% Calm Calm -- 30.26 in1024.7 mb 0.00 in0.0 mm 0.00 in/hr0.0 mm/hr 0.04 in1.0 mm
01:17 PM 65.2°F18.4°C 62.3°F16.8°C 90% Calm Calm -- 30.26 in1024.7 mb 0.00 in0.0 mm 0.00 in/hr0.0 mm/hr 0.04 in1.0 mm
01:21 PM 65.4°F18.6°C 62.2°F16.8°C 89% Calm Calm -- 30.25 in1024.4 mb 0.00 in0.0 mm 0.00 in/hr0.0 mm/hr 0.04 in1.0 mm
01:25 PM 65.4°F18.6°C 61.9°F16.6°C 88% Calm Calm -- 30.25 in1024.4 mb 0.00 in0.0 mm 0.00 in/hr0.0 mm/hr 0.04 in1.0 mm
01:32 PM 65.3°F18.5°C 61.8°F16.6°C 88% Calm Calm -- 30.25 in1024.4 mb 0.00 in0.0 mm 0.00 in/hr0.0 mm/hr 0.04 in1.0 mm
01:36 PM 65.9°F18.8°C 62.1°F16.7°C 87% Calm Calm -- 30.25 in1024.4 mb 0.00 in0.0 mm 0.00 in/hr0.0 mm/hr 0.04 in1.0 mm
01:40 PM 65.9°F18.8°C 62.0°F16.7°C 87% Calm Calm -- 30.24 in1024.0 mb 0.00 in0.0 mm 0.00 in/hr0.0 mm/hr 0.04 in1.0 mm
01:47 PM 67.0°F19.4°C 62.8°F17.1°C 86% Calm Calm -- 30.24 in1024.0 mb 0.00 in0.0 mm 0.00 in/hr0.0 mm/hr 0.04 in1.0 mm
01:51 PM 68.1°F20.1°C 63.6°F17.6°C 85% Calm Calm -- 30.24 in1024.0 mb 0.00 in0.0 mm 0.00 in/hr0.0 mm/hr 0.04 in1.0 mm
01:56 PM 68.8°F20.4°C 63.9°F17.7°C 84% Calm Calm -- 30.24 in1024.0 mb 0.00 in0.0 mm 0.00 in/hr0.0 mm/hr 0.04 in1.0 mm
02:02 PM 68.8°F20.4°C 63.6°F17.6°C 83% Calm Calm -- 30.24 in1024.0 mb 0.00 in0.0 mm 0.00 in/hr0.0 mm/hr 0.04 in1.0 mm
02:06 PM 69.1°F20.6°C 63.6°F17.6°C 82% Calm Calm -- 30.24 in1024.0 mb 0.00 in0.0 mm 0.00 in/hr0.0 mm/hr 0.04 in1.0 mm
02:11 PM 69.3°F20.7°C 63.5°F17.5°C 81% Calm Calm -- 30.23 in1023.7 mb 0.00 in0.0 mm 0.00 in/hr0.0 mm/hr 0.04 in1.0 mm
02:17 PM 68.7°F20.4°C 63.2°F17.3°C 82% Calm Calm -- 30.23 in1023.7 mb 0.00 in0.0 mm 0.00 in/hr0.0 mm/hr 0.04 in1.0 mm
02:22 PM 68.7°F20.4°C 63.2°F17.3°C 82% 0.4 mph ESE0.6 kmh ESE 0.4 mph0.6 kmh 30.23 in1023.7 mb 0.00 in0.0 mm 0.00 in/hr0.0 mm/hr 0.04 in1.0 mm
02:26 PM 68.9°F20.5°C 63.4°F17.4°C 82% Calm Calm 0.4 mph0.6 kmh 30.23 in1023.7 mb 0.00 in0.0 mm 0.00 in/hr0.0 mm/hr 0.04 in1.0 mm
02:32 PM 69.8°F21.0°C 63.9°F17.7°C 81% Calm Calm -- 30.22 in1023.4 mb 0.00 in0.0 mm 0.00 in/hr0.0 mm/hr 0.04 in1.0 mm
02:37 PM 70.5°F21.4°C 63.9°F17.7°C 79% Calm Calm -- 30.22 in1023.4 mb 0.00 in0.0 mm 0.00 in/hr0.0 mm/hr 0.04 in1.0 mm
02:41 PM 70.5°F21.4°C 63.9°F17.7°C 79% Calm Calm -- 30.22 in1023.4 mb 0.00 in0.0 mm 0.00 in/hr0.0 mm/hr 0.04 in1.0 mm
02:45 PM 70.5°F21.4°C 63.9°F17.7°C 79% 3.7 mph E6.0 kmh E 3.7 mph6.0 kmh 30.22 in1023.4 mb 0.00 in0.0 mm 0.00 in/hr0.0 mm/hr 0.04 in1.0 mm
02:52 PM 70.0°F21.1°C 63.1°F17.3°C 78% Calm Calm 3.7 mph6.0 kmh 30.21 in1023.0 mb 0.00 in0.0 mm 0.00 in/hr0.0 mm/hr 0.04 in1.0 mm
02:56 PM 69.8°F21.0°C 63.3°F17.4°C 79% Calm Calm -- 30.21 in1023.0 mb 0.00 in0.0 mm 0.00 in/hr0.0 mm/hr 0.04 in1.0 mm
03:00 PM 69.9°F21.1°C 62.9°F17.2°C 78% Calm Calm -- 30.21 in1023.0 mb 0.00 in0.0 mm 0.00 in/hr0.0 mm/hr 0.04 in1.0 mm
03:07 PM 69.9°F21.1°C 62.9°F17.2°C 78% Calm Calm -- 30.21 in1023.0 mb 0.00 in0.0 mm 0.00 in/hr0.0 mm/hr 0.04 in1.0 mm
03:11 PM 70.1°F21.2°C 63.2°F17.3°C 78% Calm Calm -- 30.21 in1023.0 mb 0.00 in0.0 mm 0.00 in/hr0.0 mm/hr 0.04 in1.0 mm
03:15 PM 70.1°F21.2°C 63.2°F17.3°C 78% Calm Calm 2.2 mph3.5 kmh 30.21 in1023.0 mb 0.00 in0.0 mm 0.00 in/hr0.0 mm/hr 0.04 in1.0 mm
03:22 PM 70.6°F21.4°C 63.3°F17.4°C 77% Calm Calm 2.2 mph3.5 kmh 30.21 in1023.0 mb 0.00 in0.0 mm 0.00 in/hr0.0 mm/hr 0.04 in1.0 mm
03:26 PM 70.6°F21.4°C 63.3°F17.4°C 77% Calm Calm -- 30.21 in1023.0 mb 0.00 in0.0 mm 0.00 in/hr0.0 mm/hr 0.04 in1.0 mm
03:30 PM 70.9°F21.6°C 63.6°F17.6°C 77% 2.8 mph ESE4.5 kmh ESE 2.8 mph4.5 kmh 30.21 in1023.0 mb 0.00 in0.0 mm 0.00 in/hr0.0 mm/hr 0.04 in1.0 mm
03:37 PM 71.0°F21.7°C 62.9°F17.2°C 75% Calm Calm 5.6 mph9.0 kmh 30.20 in1022.7 mb 0.00 in0.0 mm 0.00 in/hr0.0 mm/hr 0.04 in1.0 mm
03:41 PM 71.0°F21.7°C 63.0°F17.2°C 75% 2.0 mph 3.2 kmh 5.6 mph9.0 kmh 30.20 in1022.7 mb 0.00 in0.0 mm 0.00 in/hr0.0 mm/hr 0.04 in1.0 mm
03:46 PM 71.4°F21.9°C 63.4°F17.4°C 75% Calm Calm 2.0 mph3.2 kmh 30.20 in1022.7 mb 0.00 in0.0 mm 0.00 in/hr0.0 mm/hr 0.04 in1.0 mm
03:52 PM 71.3°F21.8°C 63.3°F17.4°C 75% Calm Calm 1.8 mph2.9 kmh 30.20 in1022.7 mb 0.00 in0.0 mm 0.00 in/hr0.0 mm/hr 0.04 in1.0 mm
03:56 PM 71.1°F21.7°C 63.1°F17.3°C 75% Calm Calm 1.8 mph2.9 kmh 30.20 in1022.7 mb 0.00 in0.0 mm 0.00 in/hr0.0 mm/hr 0.04 in1.0 mm
03:59 PM 71.0°F21.7°C 62.9°F17.2°C 75% 4.1 mph NNW6.6 kmh NNW 7.4 mph11.9 kmh 30.20 in1022.7 mb 0.00 in0.0 mm 0.00 in/hr0.0 mm/hr 0.04 in1.0 mm
04:06 PM 71.1°F21.7°C 63.0°F17.2°C 75% 3.4 mph ESE5.5 kmh ESE 7.4 mph11.9 kmh 30.20 in1022.7 mb 0.00 in0.0 mm 0.00 in/hr0.0 mm/hr 0.04 in1.0 mm
04:10 PM 71.1°F21.7°C 62.7°F17.1°C 74% Calm Calm 3.4 mph5.5 kmh 30.20 in1022.7 mb 0.00 in0.0 mm 0.00 in/hr0.0 mm/hr 0.04 in1.0 mm
04:14 PM 71.1°F21.7°C 62.6°F17.0°C 74% Calm Calm 3.4 mph5.5 kmh 30.20 in1022.7 mb 0.00 in0.0 mm 0.00 in/hr0.0 mm/hr 0.04 in1.0 mm
04:21 PM 71.1°F21.7°C 63.1°F17.3°C 75% Calm Calm -- 30.20 in1022.7 mb 0.00 in0.0 mm 0.00 in/hr0.0 mm/hr 0.04 in1.0 mm
04:25 PM 71.0°F21.7°C 62.9°F17.2°C 75% Calm Calm -- 30.20 in1022.7 mb 0.00 in0.0 mm 0.00 in/hr0.0 mm/hr 0.04 in1.0 mm
04:30 PM 71.0°F21.7°C 62.6°F17.0°C 74% Calm Calm -- 30.20 in1022.7 mb 0.00 in0.0 mm 0.00 in/hr0.0 mm/hr 0.04 in1.0 mm
04:36 PM 71.1°F21.7°C 62.7°F17.1°C 74% Calm Calm -- 30.20 in1022.7 mb 0.00 in0.0 mm 0.00 in/hr0.0 mm/hr 0.04 in1.0 mm
04:41 PM 71.2°F21.8°C 62.8°F17.1°C 74% 4.7 mph NNW7.6 kmh NNW 4.7 mph7.6 kmh 30.20 in1022.7 mb 0.00 in0.0 mm 0.00 in/hr0.0 mm/hr 0.04 in1.0 mm
04:45 PM 71.3°F21.8°C 62.8°F17.1°C 74% Calm Calm 4.7 mph7.6 kmh 30.20 in1022.7 mb 0.00 in0.0 mm 0.00 in/hr0.0 mm/hr 0.04 in1.0 mm
04:51 PM 71.0°F21.7°C 62.5°F16.9°C 74% 2.4 mph E3.9 kmh E 2.4 mph3.9 kmh 30.19 in1022.4 mb 0.00 in0.0 mm 0.00 in/hr0.0 mm/hr 0.04 in1.0 mm
04:55 PM 70.8°F21.6°C 62.4°F16.9°C 74% Calm Calm 2.4 mph3.9 kmh 30.19 in1022.4 mb 0.00 in0.0 mm 0.00 in/hr0.0 mm/hr 0.04 in1.0 mm
05:00 PM 71.1°F21.7°C 62.3°F16.8°C 73% Calm Calm 2.4 mph3.9 kmh 30.19 in1022.4 mb 0.00 in0.0 mm 0.00 in/hr0.0 mm/hr 0.04 in1.0 mm
05:04 PM 71.4°F21.9°C 62.6°F17.0°C 73% Calm Calm -- 30.19 in1022.4 mb 0.00 in0.0 mm 0.00 in/hr0.0 mm/hr 0.04 in1.0 mm
05:11 PM 72.8°F22.7°C 63.9°F17.7°C 73% Calm Calm 1.2 mph1.9 kmh 30.19 in1022.4 mb 0.00 in0.0 mm 0.00 in/hr0.0 mm/hr 0.04 in1.0 mm
05:15 PM 72.7°F22.6°C 63.4°F17.4°C 72% Calm Calm 1.2 mph1.9 kmh 30.19 in1022.4 mb 0.00 in0.0 mm 0.00 in/hr0.0 mm/hr 0.04 in1.0 mm
05:19 PM 72.7°F22.6°C 63.9°F17.7°C 73% Calm Calm -- 30.19 in1022.4 mb 0.00 in0.0 mm 0.00 in/hr0.0 mm/hr 0.04 in1.0 mm
05:26 PM 72.2°F22.3°C 63.4°F17.4°C 73% Calm Calm -- 30.19 in1022.4 mb 0.00 in0.0 mm 0.00 in/hr0.0 mm/hr 0.04 in1.0 mm
05:30 PM 71.8°F22.1°C 63.0°F17.2°C 73% Calm Calm -- 30.20 in1022.7 mb 0.00 in0.0 mm 0.00 in/hr0.0 mm/hr 0.04 in1.0 mm
05:36 PM 71.5°F21.9°C 62.7°F17.1°C 73% Calm Calm -- 30.20 in1022.7 mb 0.00 in0.0 mm 0.00 in/hr0.0 mm/hr 0.04 in1.0 mm
05:41 PM 71.3°F21.8°C 62.9°F17.2°C 74% Calm Calm -- 30.20 in1022.7 mb 0.00 in0.0 mm 0.00 in/hr0.0 mm/hr 0.04 in1.0 mm
05:45 PM 71.0°F21.7°C 62.6°F17.0°C 74% Calm Calm -- 30.20 in1022.7 mb 0.00 in0.0 mm 0.00 in/hr0.0 mm/hr 0.04 in1.0 mm
05:51 PM 70.9°F21.6°C 62.9°F17.2°C 75% Calm Calm -- 30.20 in1022.7 mb 0.00 in0.0 mm 0.00 in/hr0.0 mm/hr 0.04 in1.0 mm
05:56 PM 70.7°F21.5°C 63.0°F17.2°C 76% Calm Calm -- 30.20 in1022.7 mb 0.00 in0.0 mm 0.00 in/hr0.0 mm/hr 0.04 in1.0 mm
06:00 PM 70.8°F21.6°C 63.1°F17.3°C 76% Calm Calm -- 30.20 in1022.7 mb 0.00 in0.0 mm 0.00 in/hr0.0 mm/hr 0.04 in1.0 mm
06:05 PM 70.3°F21.3°C 62.6°F17.0°C 76% Calm Calm -- 30.20 in1022.7 mb 0.00 in0.0 mm 0.00 in/hr0.0 mm/hr 0.04 in1.0 mm
06:11 PM 70.4°F21.3°C 62.7°F17.1°C 76% Calm Calm -- 30.21 in1023.0 mb 0.00 in0.0 mm 0.00 in/hr0.0 mm/hr 0.04 in1.0 mm
06:15 PM 70.2°F21.2°C 62.9°F17.2°C 77% Calm Calm -- 30.20 in1022.7 mb 0.00 in0.0 mm 0.00 in/hr0.0 mm/hr 0.04 in1.0 mm
06:20 PM 69.9°F21.1°C 62.6°F17.0°C 77% Calm Calm -- 30.20 in1022.7 mb 0.00 in0.0 mm 0.00 in/hr0.0 mm/hr 0.04 in1.0 mm
06:26 PM 69.8°F21.0°C 62.9°F17.2°C 78% Calm Calm -- 30.21 in1023.0 mb 0.00 in0.0 mm 0.00 in/hr0.0 mm/hr 0.04 in1.0 mm
06:30 PM 69.9°F21.1°C 62.9°F17.2°C 78% Calm Calm -- 30.21 in1023.0 mb 0.00 in0.0 mm 0.00 in/hr0.0 mm/hr 0.04 in1.0 mm
06:35 PM 69.6°F20.9°C 62.7°F17.1°C 78% Calm Calm -- 30.21 in1023.0 mb 0.00 in0.0 mm 0.00 in/hr0.0 mm/hr 0.04 in1.0 mm
06:41 PM 69.4°F20.8°C 62.8°F17.1°C 79% Calm Calm -- 30.21 in1023.0 mb 0.00 in0.0 mm 0.00 in/hr0.0 mm/hr 0.04 in1.0 mm
06:45 PM 69.2°F20.7°C 62.6°F17.0°C 79% Calm Calm -- 30.21 in1023.0 mb 0.00 in0.0 mm 0.00 in/hr0.0 mm/hr 0.04 in1.0 mm
06:50 PM 68.9°F20.5°C 62.7°F17.1°C 80% Calm Calm -- 30.21 in1023.0 mb 0.00 in0.0 mm 0.00 in/hr0.0 mm/hr 0.04 in1.0 mm
06:56 PM 68.7°F20.4°C 62.8°F17.1°C 81% Calm Calm -- 30.21 in1023.0 mb 0.00 in0.0 mm 0.00 in/hr0.0 mm/hr 0.04 in1.0 mm
06:59 PM 68.1°F20.1°C 62.3°F16.8°C 81% Calm Calm -- 30.21 in1023.0 mb 0.00 in0.0 mm 0.00 in/hr0.0 mm/hr 0.04 in1.0 mm
07:03 PM 68.1°F20.1°C 62.3°F16.8°C 81% Calm Calm -- 30.21 in1023.0 mb 0.00 in0.0 mm 0.00 in/hr0.0 mm/hr 0.04 in1.0 mm
07:10 PM 67.4°F19.7°C 61.9°F16.6°C 82% Calm Calm -- 30.22 in1023.4 mb 0.00 in0.0 mm 0.00 in/hr0.0 mm/hr 0.04 in1.0 mm
07:14 PM 67.2°F19.6°C 61.7°F16.5°C 82% Calm Calm -- 30.22 in1023.4 mb 0.00 in0.0 mm 0.00 in/hr0.0 mm/hr 0.04 in1.0 mm
07:19 PM 66.7°F19.3°C 61.2°F16.2°C 82% Calm Calm -- 30.21 in1023.0 mb 0.00 in0.0 mm 0.00 in/hr0.0 mm/hr 0.04 in1.0 mm
07:25 PM 66.3°F19.1°C 61.2°F16.2°C 83% Calm Calm -- 30.22 in1023.4 mb 0.00 in0.0 mm 0.00 in/hr0.0 mm/hr 0.04 in1.0 mm
07:29 PM 66.0°F18.9°C 60.9°F16.1°C 83% Calm Calm -- 30.22 in1023.4 mb 0.00 in0.0 mm 0.00 in/hr0.0 mm/hr 0.04 in1.0 mm
07:34 PM 66.0°F18.9°C 61.2°F16.2°C 84% Calm Calm -- 30.22 in1023.4 mb 0.00 in0.0 mm 0.00 in/hr0.0 mm/hr 0.04 in1.0 mm
07:40 PM 65.3°F18.5°C 60.5°F15.8°C 84% Calm Calm -- 30.22 in1023.4 mb 0.00 in0.0 mm 0.00 in/hr0.0 mm/hr 0.04 in1.0 mm
07:44 PM 65.1°F18.4°C 60.3°F15.7°C 84% Calm Calm -- 30.23 in1023.7 mb 0.00 in0.0 mm 0.00 in/hr0.0 mm/hr 0.04 in1.0 mm
07:49 PM 64.7°F18.2°C 60.2°F15.7°C 85% Calm Calm -- 30.22 in1023.4 mb 0.00 in0.0 mm 0.00 in/hr0.0 mm/hr 0.04 in1.0 mm
07:53 PM 64.5°F18.1°C 60.0°F15.6°C 85% Calm Calm -- 30.23 in1023.7 mb 0.00 in0.0 mm 0.00 in/hr0.0 mm/hr 0.04 in1.0 mm
07:59 PM 63.8°F17.7°C 59.4°F15.2°C 85% Calm Calm -- 30.23 in1023.7 mb 0.00 in0.0 mm 0.00 in/hr0.0 mm/hr 0.04 in1.0 mm
08:04 PM 63.8°F17.7°C 59.7°F15.4°C 86% Calm Calm -- 30.23 in1023.7 mb 0.00 in0.0 mm 0.00 in/hr0.0 mm/hr 0.04 in1.0 mm
08:08 PM 63.6°F17.6°C 59.5°F15.3°C 86% Calm Calm -- 30.23 in1023.7 mb 0.00 in0.0 mm 0.00 in/hr0.0 mm/hr 0.04 in1.0 mm
08:15 PM 62.9°F17.2°C 59.1°F15.1°C 87% Calm Calm -- 30.24 in1024.0 mb 0.00 in0.0 mm 0.00 in/hr0.0 mm/hr 0.04 in1.0 mm
08:19 PM 62.9°F17.2°C 59.1°F15.1°C 87% Calm Calm -- 30.24 in1024.0 mb 0.00 in0.0 mm 0.00 in/hr0.0 mm/hr 0.04 in1.0 mm
08:23 PM 62.7°F17.1°C 58.9°F14.9°C 87% Calm Calm -- 30.24 in1024.0 mb 0.00 in0.0 mm 0.00 in/hr0.0 mm/hr 0.04 in1.0 mm
08:30 PM 62.4°F16.9°C 58.6°F14.8°C 87% Calm Calm -- 30.24 in1024.0 mb 0.00 in0.0 mm 0.00 in/hr0.0 mm/hr 0.04 in1.0 mm
08:34 PM 62.0°F16.7°C 58.5°F14.7°C 88% Calm Calm -- 30.24 in1024.0 mb 0.00 in0.0 mm 0.00 in/hr0.0 mm/hr 0.04 in1.0 mm
08:39 PM 61.8°F16.6°C 58.3°F14.6°C 88% Calm Calm -- 30.24 in1024.0 mb 0.00 in0.0 mm 0.00 in/hr0.0 mm/hr 0.04 in1.0 mm
08:45 PM 61.5°F16.4°C 58.0°F14.4°C 88% Calm Calm -- 30.24 in1024.0 mb 0.00 in0.0 mm 0.00 in/hr0.0 mm/hr 0.04 in1.0 mm
08:49 PM 61.3°F16.3°C 57.8°F14.3°C 88% Calm Calm -- 30.24 in1024.0 mb 0.00 in0.0 mm 0.00 in/hr0.0 mm/hr 0.04 in1.0 mm
08:54 PM 61.1°F16.2°C 57.6°F14.2°C 88% Calm Calm -- 30.24 in1024.0 mb 0.00 in0.0 mm 0.00 in/hr0.0 mm/hr 0.04 in1.0 mm
09:00 PM 60.9°F16.1°C 57.8°F14.3°C 89% Calm Calm -- 30.25 in1024.4 mb 0.00 in0.0 mm 0.00 in/hr0.0 mm/hr 0.04 in1.0 mm
09:04 PM 60.9°F16.1°C 57.8°F14.3°C 89% Calm Calm -- 30.25 in1024.4 mb 0.00 in0.0 mm 0.00 in/hr0.0 mm/hr 0.04 in1.0 mm
09:09 PM 60.6°F15.9°C 57.5°F14.2°C 89% Calm Calm -- 30.25 in1024.4 mb 0.00 in0.0 mm 0.00 in/hr0.0 mm/hr 0.04 in1.0 mm
09:15 PM 60.2°F15.7°C 57.1°F13.9°C 89% Calm Calm -- 30.25 in1024.4 mb 0.00 in0.0 mm 0.00 in/hr0.0 mm/hr 0.04 in1.0 mm
09:19 PM 60.2°F15.7°C 57.1°F13.9°C 89% Calm Calm -- 30.25 in1024.4 mb 0.00 in0.0 mm 0.00 in/hr0.0 mm/hr 0.04 in1.0 mm
09:24 PM 59.9°F15.5°C 56.8°F13.8°C 89% Calm Calm -- 30.25 in1024.4 mb 0.00 in0.0 mm 0.00 in/hr0.0 mm/hr 0.04 in1.0 mm
09:30 PM 59.9°F15.5°C 56.8°F13.8°C 89% Calm Calm -- 30.25 in1024.4 mb 0.00 in0.0 mm 0.00 in/hr0.0 mm/hr 0.04 in1.0 mm
09:35 PM 59.3°F15.2°C 56.5°F13.6°C 90% Calm Calm -- 30.25 in1024.4 mb 0.00 in0.0 mm 0.00 in/hr0.0 mm/hr 0.04 in1.0 mm
09:39 PM 59.3°F15.2°C 56.5°F13.6°C 90% Calm Calm -- 30.25 in1024.4 mb 0.00 in0.0 mm 0.00 in/hr0.0 mm/hr 0.04 in1.0 mm
09:45 PM 59.3°F15.2°C 56.5°F13.6°C 90% Calm Calm -- 30.25 in1024.4 mb 0.00 in0.0 mm 0.00 in/hr0.0 mm/hr 0.04 in1.0 mm
09:50 PM 59.3°F15.2°C 56.5°F13.6°C 90% Calm Calm -- 30.25 in1024.4 mb 0.00 in0.0 mm 0.00 in/hr0.0 mm/hr 0.04 in1.0 mm
09:54 PM 59.1°F15.1°C 56.3°F13.5°C 90% Calm Calm -- 30.25 in1024.4 mb 0.00 in0.0 mm 0.00 in/hr0.0 mm/hr 0.04 in1.0 mm
09:59 PM 59.1°F15.1°C 56.3°F13.5°C 90% Calm Calm -- 30.25 in1024.4 mb 0.00 in0.0 mm 0.00 in/hr0.0 mm/hr 0.04 in1.0 mm
10:03 PM 58.8°F14.9°C 56.3°F13.5°C 92% Calm Calm -- 30.25 in1024.4 mb 0.00 in0.0 mm 0.00 in/hr0.0 mm/hr 0.04 in1.0 mm
10:08 PM 58.6°F14.8°C 56.1°F13.4°C 92% Calm Calm -- 30.25 in1024.4 mb 0.00 in0.0 mm 0.00 in/hr0.0 mm/hr 0.04 in1.0 mm
10:14 PM 58.4°F14.7°C 55.9°F13.3°C 92% Calm Calm -- 30.25 in1024.4 mb 0.00 in0.0 mm 0.00 in/hr0.0 mm/hr 0.04 in1.0 mm
10:19 PM 58.4°F14.7°C 55.9°F13.3°C 92% Calm Calm -- 30.26 in1024.7 mb 0.00 in0.0 mm 0.00 in/hr0.0 mm/hr 0.04 in1.0 mm
10:23 PM 58.2°F14.6°C 55.7°F13.2°C 92% Calm Calm -- 30.26 in1024.7 mb 0.00 in0.0 mm 0.00 in/hr0.0 mm/hr 0.04 in1.0 mm
10:27 PM 58.2°F14.6°C 55.7°F13.2°C 92% Calm Calm -- 30.26 in1024.7 mb 0.00 in0.0 mm 0.00 in/hr0.0 mm/hr 0.04 in1.0 mm
10:34 PM 58.1°F14.5°C 55.6°F13.1°C 92% Calm Calm -- 30.26 in1024.7 mb 0.00 in0.0 mm 0.00 in/hr0.0 mm/hr 0.04 in1.0 mm
10:38 PM 57.9°F14.4°C 55.4°F13.0°C 92% Calm Calm -- 30.26 in1024.7 mb 0.00 in0.0 mm 0.00 in/hr0.0 mm/hr 0.04 in1.0 mm
10:42 PM 57.9°F14.4°C 55.4°F13.0°C 92% Calm Calm -- 30.26 in1024.7 mb 0.00 in0.0 mm 0.00 in/hr0.0 mm/hr 0.04 in1.0 mm
10:49 PM 57.7°F14.3°C 55.2°F12.9°C 92% Calm Calm -- 30.26 in1024.7 mb 0.00 in0.0 mm 0.00 in/hr0.0 mm/hr 0.04 in1.0 mm
10:53 PM 57.7°F14.3°C 55.5°F13.1°C 93% Calm Calm -- 30.26 in1024.7 mb 0.00 in0.0 mm 0.00 in/hr0.0 mm/hr 0.04 in1.0 mm
10:57 PM 57.5°F14.2°C 55.3°F12.9°C 93% Calm Calm -- 30.26 in1024.7 mb 0.00 in0.0 mm 0.00 in/hr0.0 mm/hr 0.04 in1.0 mm
11:04 PM 57.5°F14.2°C 55.3°F12.9°C 93% Calm Calm -- 30.26 in1024.7 mb 0.00 in0.0 mm 0.00 in/hr0.0 mm/hr 0.04 in1.0 mm
11:08 PM 57.5°F14.2°C 55.3°F12.9°C 93% Calm Calm -- 30.26 in1024.7 mb 0.00 in0.0 mm 0.00 in/hr0.0 mm/hr 0.04 in1.0 mm
11:12 PM 57.3°F14.1°C 55.1°F12.8°C 93% Calm Calm -- 30.27 in1025.1 mb 0.00 in0.0 mm 0.00 in/hr0.0 mm/hr 0.04 in1.0 mm
11:19 PM 57.2°F14.0°C 55.0°F12.8°C 93% Calm Calm -- 30.26 in1024.7 mb 0.00 in0.0 mm 0.00 in/hr0.0 mm/hr 0.04 in1.0 mm
11:23 PM 57.0°F13.9°C 54.8°F12.7°C 93% Calm Calm -- 30.26 in1024.7 mb 0.00 in0.0 mm 0.00 in/hr0.0 mm/hr 0.04 in1.0 mm
11:28 PM 57.0°F13.9°C 54.8°F12.7°C 93% Calm Calm -- 30.27 in1025.1 mb 0.00 in0.0 mm 0.00 in/hr0.0 mm/hr 0.04 in1.0 mm
11:34 PM 57.0°F13.9°C 54.8°F12.7°C 93% Calm Calm -- 30.27 in1025.1 mb 0.00 in0.0 mm 0.00 in/hr0.0 mm/hr 0.04 in1.0 mm
11:39 PM 56.8°F13.8°C 54.6°F12.6°C 93% Calm Calm -- 30.27 in1025.1 mb 0.00 in0.0 mm 0.00 in/hr0.0 mm/hr 0.04 in1.0 mm
11:43 PM 56.8°F13.8°C 54.6°F12.6°C 93% Calm Calm -- 30.27 in1025.1 mb 0.00 in0.0 mm 0.00 in/hr0.0 mm/hr 0.04 in1.0 mm
11:49 PM 56.8°F13.8°C 54.6°F12.6°C 93% Calm Calm -- 30.27 in1025.1 mb 0.00 in0.0 mm 0.00 in/hr0.0 mm/hr 0.04 in1.0 mm
11:54 PM 56.8°F13.8°C 54.6°F12.6°C 93% Calm Calm -- 30.27 in1025.1 mb 0.00 in0.0 mm 0.00 in/hr0.0 mm/hr 0.04 in1.0 mm
11:57 PM 56.6°F13.7°C 54.4°F12.4°C 93% Calm Calm -- 30.27 in1025.1 mb 0.00 in0.0 mm 0.00 in/hr0.0 mm/hr 0.04 in1.0 mm